Time;durP1;ratioP1;P1;durP2;ratioP2;P2;SDS_P1;SDS_P2;PMS_P1;PMS_P2;Temp;Humidity;BMP_temperature;BMP_pressure;BME280_temperature;BME280_humidity;BME280_pressure;Samples;Min_cycle;Max_cycle;Signal;HPM_P1;HPM_P2
2022/05/19 00:01:01;;;;;;;6.93;3.83;;;;;;;26.94;42.24;101464.50;5035801;28;20028;-67
2022/05/19 00:03:27;;;;;;;6.45;3.53;;;;;;;26.90;42.72;101471.50;5036920;28;20049;-67
2022/05/19 00:05:52;;;;;;;8.25;3.28;;;;;;;26.89;42.82;101466.22;5037036;28;20113;-67
2022/05/19 00:08:18;;;;;;;7.85;3.45;;;;;;;26.86;43.19;101467.50;5036945;28;20057;-67
2022/05/19 00:10:43;;;;;;;4.20;3.25;;;;;;;26.81;42.84;101461.81;5037001;28;20022;-66
2022/05/19 00:13:08;;;;;;;10.43;3.83;;;;;;;26.76;43.06;101458.88;5036400;28;20091;-67
2022/05/19 00:15:34;;;;;;;9.05;3.53;;;;;;;26.70;42.81;101457.00;5036737;28;20382;-67
2022/05/19 00:17:59;;;;;;;11.50;4.57;;;;;;;26.66;42.87;101464.00;5037132;28;20029;-66
2022/05/19 00:20:24;;;;;;;3.75;3.35;;;;;;;26.61;43.04;101461.91;5036805;28;20029;-67
2022/05/19 00:22:50;;;;;;;5.55;3.45;;;;;;;26.57;42.83;101454.31;5036882;28;20109;-66
2022/05/19 00:25:15;;;;;;;10.55;4.00;;;;;;;26.55;42.83;101454.53;5036647;28;20021;-67
2022/05/19 00:27:40;;;;;;;5.25;3.80;;;;;;;26.52;43.69;101445.88;5036663;28;20060;-66
2022/05/19 00:30:06;;;;;;;9.65;4.10;;;;;;;26.49;43.18;101446.31;5036782;28;20083;-66
2022/05/19 00:32:32;;;;;;;6.32;4.15;;;;;;;26.49;43.64;101451.81;5036664;28;20056;-66
2022/05/19 00:34:57;;;;;;;6.35;3.90;;;;;;;26.51;43.51;101455.19;5036460;28;20025;-66
2022/05/19 00:37:22;;;;;;;7.00;3.78;;;;;;;26.53;43.77;101453.06;5035481;28;20180;-67
2022/05/19 00:39:48;;;;;;;7.28;4.93;;;;;;;26.55;43.58;101460.00;5036717;28;20033;-66
2022/05/19 00:45:00;;;;;;;9.57;4.10;;;;;;;26.48;43.73;101453.72;5036262;28;20024;-66
2022/05/19 00:47:33;;;;;;;9.85;3.88;;;;;;;26.43;43.37;101452.69;5036627;28;20045;-66
2022/05/19 00:49:58;;;;;;;7.15;3.95;;;;;;;26.37;43.53;101448.91;5035082;28;20032;-66
2022/05/19 00:52:34;;;;;;;8.60;4.72;;;;;;;26.32;43.80;101445.97;5036156;28;20017;-67
2022/05/19 00:55:22;;;;;;;6.40;4.03;;;;;;;26.24;43.91;101439.88;5017183;28;20079;-68
2022/05/19 00:57:54;;;;;;;7.03;4.20;;;;;;;26.22;43.79;101439.22;5036051;28;20443;-67
2022/05/19 01:00:21;;;;;;;6.22;3.65;;;;;;;26.17;43.92;101433.53;5036125;28;20041;-66
2022/05/19 01:02:56;;;;;;;11.45;4.30;;;;;;;26.14;43.80;101436.72;5034514;28;20036;-67
2022/05/19 01:05:47;;;;;;;4.95;3.95;;;;;;;26.10;43.72;101429.94;5035554;28;20076;-66
2022/05/19 01:08:24;;;;;;;8.90;3.90;;;;;;;26.04;44.10;101432.50;5035521;28;20076;-67
2022/05/19 01:10:50;;;;;;;6.50;4.30;;;;;;;25.98;43.73;101433.38;5034987;28;20025;-67
2022/05/19 01:13:16;;;;;;;10.63;4.30;;;;;;;25.93;43.93;101426.84;5035607;28;20028;-66
2022/05/19 01:15:45;;;;;;;8.10;4.40;;;;;;;25.87;44.17;101428.53;5034433;28;20039;-66
2022/05/19 01:18:13;;;;;;;6.82;4.38;;;;;;;25.83;44.43;101430.00;5035930;28;20029;-66
2022/05/19 01:20:38;;;;;;;9.20;4.40;;;;;;;25.80;43.88;101424.09;5034654;28;20076;-66
2022/05/19 01:23:11;;;;;;;5.40;4.45;;;;;;;25.75;44.25;101424.75;5034986;28;20033;-66
2022/05/19 01:25:45;;;;;;;8.48;4.35;;;;;;;25.72;43.94;101422.44;5034263;28;20108;-67
2022/05/19 01:28:10;;;;;;;13.73;4.82;;;;;;;25.69;44.08;101414.63;5035472;28;20030;-66
2022/05/19 01:30:36;;;;;;;9.15;4.53;;;;;;;25.66;44.64;101423.28;5035686;28;20094;-67
2022/05/19 01:33:02;;;;;;;6.43;4.35;;;;;;;25.60;44.33;101413.16;5035504;28;20033;-66
2022/05/19 01:35:33;;;;;;;7.90;4.40;;;;;;;25.58;44.71;101415.28;5034031;28;20036;-67
2022/05/19 01:37:59;;;;;;;8.18;4.40;;;;;;;25.55;44.16;101406.63;5035709;28;20033;-66
2022/05/19 01:41:01;;;;;;;6.95;4.88;;;;;;;25.52;44.85;101405.13;5035603;28;20394;-66
2022/05/19 01:43:41;;;;;;;9.20;5.45;;;;;;;25.48;44.27;101408.53;5035629;28;20033;-66
2022/05/19 01:46:33;;;;;;;6.38;4.70;;;;;;;25.46;44.72;101408.72;5035381;28;20387;-66
2022/05/19 01:49:13;;;;;;;4.68;4.03;;;;;;;25.43;44.65;101406.41;5034199;28;20079;-67
2022/05/19 01:51:50;;;;;;;9.60;4.30;;;;;;;25.40;44.54;101409.56;5035227;28;20057;-66
2022/05/19 01:54:15;;;;;;;6.45;4.35;;;;;;;25.37;44.95;101413.59;5034050;28;20029;-67
2022/05/19 01:57:08;;;;;;;8.23;5.20;;;;;;;25.36;45.07;101411.03;5035062;28;20046;-67
2022/05/19 01:59:48;;;;;;;11.38;5.30;;;;;;;25.35;45.13;101406.59;5016860;28;20087;-67
2022/05/19 02:02:32;;;;;;;15.45;5.13;;;;;;;25.33;44.54;101403.22;5033800;28;20083;-66
2022/05/19 02:05:26;;;;;;;7.63;4.53;;;;;;;25.29;44.79;101401.97;5035188;28;20032;-66
2022/05/19 02:07:54;;;;;;;9.70;4.55;;;;;;;25.27;45.21;101402.19;5034936;28;20076;-66
2022/05/19 02:10:24;;;;;;;14.52;5.38;;;;;;;25.26;45.58;101403.25;5034827;28;20040;-66
2022/05/19 02:12:50;;;;;;;6.70;4.43;;;;;;;25.26;45.21;101399.66;5035033;28;20078;-67
2022/05/19 02:15:18;;;;;;;9.52;4.78;;;;;;;25.25;44.94;101395.22;5033398;28;20042;-67
2022/05/19 02:17:44;;;;;;;10.27;4.75;;;;;;;25.25;45.13;101397.97;5033612;28;20395;-67
2022/05/19 02:20:12;;;;;;;10.43;5.07;;;;;;;25.23;45.24;101400.94;5033571;28;20399;-66
2022/05/19 02:22:40;;;;;;;8.02;5.00;;;;;;;25.23;45.50;101400.06;5034904;28;20024;-66
2022/05/19 02:25:27;;;;;;;10.10;5.20;;;;;;;25.23;45.64;101400.06;5037059;28;20104;-67
2022/05/19 02:28:34;;;;;;;7.18;4.63;;;;;;;25.22;45.33;101404.72;5038259;28;20085;-66
2022/05/19 02:31:00;;;;;;;8.00;4.25;;;;;;;25.19;45.28;101405.13;5013618;28;20487;-67
2022/05/19 02:33:25;;;;;;;8.82;4.72;;;;;;;25.17;45.62;101398.19;5014610;28;20034;-67
2022/05/19 02:35:51;;;;;;;8.10;4.55;;;;;;;25.16;45.64;101388.25;5014046;28;20030;-65
2022/05/19 02:38:18;;;;;;;5.22;3.70;;;;;;;25.14;45.75;101396.69;5013930;28;20455;-67
2022/05/19 02:40:44;;;;;;;6.50;4.10;;;;;;;25.11;45.52;101379.81;5013643;28;20030;-66
2022/05/19 02:43:11;;;;;;;5.25;3.75;;;;;;;25.06;45.35;101382.34;5012421;28;20053;-67
2022/05/19 02:45:36;;;;;;;7.18;3.55;;;;;;;25.04;45.32;101385.31;4996060;28;20038;-67
2022/05/19 02:48:03;;;;;;;5.53;3.25;;;;;;;25.02;45.62;101383.81;5012559;28;20399;-67
2022/05/19 02:50:29;;;;;;;4.75;4.18;;;;;;;25.01;45.58;101384.88;5012329;28;20041;-66
2022/05/19 02:52:55;;;;;;;8.50;4.78;;;;;;;24.99;46.16;101381.47;5012415;28;20038;-67
2022/05/19 02:55:20;;;;;;;6.60;4.60;;;;;;;24.97;45.54;101376.22;5012319;28;20030;-66
2022/05/19 02:57:48;;;;;;;4.75;3.90;;;;;;;24.96;45.63;101381.94;5011549;28;20085;-67
2022/05/19 03:00:17;;;;;;;7.85;4.57;;;;;;;24.92;45.93;101375.16;5012180;28;20057;-67
2022/05/19 03:02:43;;;;;;;5.72;4.20;;;;;;;24.89;45.66;101377.28;5012410;28;20029;-67
2022/05/19 03:05:11;;;;;;;9.05;4.85;;;;;;;24.87;45.95;101376.63;5025889;28;20032;-66
2022/05/19 03:07:37;;;;;;;7.00;4.50;;;;;;;24.84;46.03;101379.81;5033892;28;20075;-66
2022/05/19 03:10:03;;;;;;;10.02;4.70;;;;;;;24.81;45.73;101388.44;5034267;28;20025;-67
2022/05/19 03:12:29;;;;;;;6.35;5.07;;;;;;;24.77;46.10;101378.91;5034338;28;20413;-67
2022/05/19 03:14:54;;;;;;;9.43;4.90;;;;;;;24.75;45.30;101383.75;5032872;28;20029;-67
2022/05/19 03:17:20;;;;;;;8.65;5.30;;;;;;;24.74;45.81;101384.81;5034114;28;20033;-66
2022/05/19 03:19:45;;;;;;;7.07;4.57;;;;;;;24.74;45.63;101383.97;5033796;28;20025;-67
2022/05/19 03:22:11;;;;;;;8.73;4.60;;;;;;;24.70;45.88;101383.56;5034204;28;20091;-67
2022/05/19 03:24:36;;;;;;;7.18;5.00;;;;;;;24.69;45.29;101381.00;5033944;28;20032;-67
2022/05/19 03:27:02;;;;;;;7.63;4.30;;;;;;;24.64;45.48;101384.38;5033881;28;20056;-67
2022/05/19 03:29:27;;;;;;;9.02;4.20;;;;;;;24.63;45.97;101390.03;5034179;28;20032;-66
2022/05/19 03:31:53;;;;;;;6.95;4.95;;;;;;;24.62;46.08;101397.41;5032848;28;20032;-67
2022/05/19 03:34:18;;;;;;;5.68;4.03;;;;;;;24.60;45.46;101394.03;5033466;28;20029;-67
2022/05/19 03:36:45;;;;;;;9.55;4.20;;;;;;;24.61;46.09;101405.84;5033937;28;20065;-67
2022/05/19 03:39:10;;;;;;;6.80;3.90;;;;;;;24.60;45.97;101401.41;5032677;28;20057;-67
2022/05/19 03:41:36;;;;;;;6.43;4.45;;;;;;;24.59;46.22;101405.22;5034130;28;20152;-67
2022/05/19 03:44:01;;;;;;;6.15;4.07;;;;;;;24.59;46.25;101407.97;5033921;28;20030;-67
2022/05/19 03:46:26;;;;;;;9.82;4.80;;;;;;;24.59;46.27;101402.50;5033856;28;20030;-67
2022/05/19 03:48:52;;;;;;;5.70;4.80;;;;;;;24.57;45.94;101410.91;5032481;28;20029;-67
2022/05/19 03:51:23;;;;;;;11.05;4.95;;;;;;;24.58;46.43;101411.75;5033825;28;20037;-67
2022/05/19 03:53:50;;;;;;;6.00;4.28;;;;;;;24.60;46.06;101420.59;5033667;28;20036;-67
2022/05/19 03:56:16;;;;;;;8.50;4.88;;;;;;;24.62;45.95;101433.03;5033434;28;20135;-67
2022/05/19 03:58:41;;;;;;;7.03;4.13;;;;;;;24.66;46.84;101532.13;5034002;28;20029;-66
2022/05/19 04:01:07;;;;;;;6.85;4.47;;;;;;;24.65;47.04;101547.72;5033958;28;20051;-66
2022/05/19 04:03:32;;;;;;;9.20;5.03;;;;;;;24.70;46.62;101490.44;5034041;28;20077;-67
2022/05/19 04:05:57;;;;;;;9.07;4.97;;;;;;;24.80;47.09;101559.44;5034145;28;20037;-66
2022/05/19 04:08:23;;;;;;;7.57;4.65;;;;;;;24.89;46.24;101533.53;5033206;28;20057;-67
2022/05/19 04:10:48;;;;;;;5.22;3.58;;;;;;;25.02;46.37;101529.97;5033216;28;20021;-67
2022/05/19 04:13:14;;;;;;;5.80;4.15;;;;;;;25.18;46.53;101553.47;5033745;28;20025;-67
2022/05/19 04:15:39;;;;;;;5.82;3.67;;;;;;;25.33;46.07;101516.56;5033534;28;20026;-67
2022/05/19 04:18:06;;;;;;;4.90;3.63;;;;;;;25.49;46.06;101509.84;5032457;28;20025;-66
2022/05/19 04:20:31;;;;;;;10.00;3.47;;;;;;;25.62;46.12;101525.47;5033362;28;20025;-67
2022/05/19 04:22:58;;;;;;;5.05;3.50;;;;;;;25.72;46.06;101526.75;5033283;28;20022;-67
2022/05/19 04:25:23;;;;;;;8.50;5.40;;;;;;;25.84;45.16;101525.06;5032101;28;20059;-67
2022/05/19 04:27:49;;;;;;;5.18;3.25;;;;;;;25.91;45.75;101525.88;5033525;28;20029;-67
2022/05/19 04:30:14;;;;;;;4.70;3.38;;;;;;;25.98;45.26;101520.41;5033922;28;20017;-67
2022/05/19 04:32:40;;;;;;;7.90;3.88;;;;;;;26.04;45.60;101520.41;5036616;28;20045;-67
2022/05/19 04:35:06;;;;;;;6.15;3.65;;;;;;;26.10;45.49;101509.59;5036732;28;20040;-66
2022/05/19 04:37:31;;;;;;;9.82;4.05;;;;;;;26.18;45.52;101520.41;5036929;28;20029;-67
2022/05/19 04:40:00;;;;;;;4.93;3.25;;;;;;;26.23;45.38;101506.84;5037171;28;20477;-67
2022/05/19 04:42:25;;;;;;;6.57;3.30;;;;;;;26.28;45.10;101515.28;5036365;28;20026;-67
2022/05/19 04:44:56;;;;;;;6.85;3.60;;;;;;;26.32;45.02;101517.41;5034705;28;20025;-66
2022/05/19 04:47:21;;;;;;;12.27;4.38;;;;;;;26.37;45.02;101516.75;5035454;28;20091;-66
2022/05/19 04:49:46;;;;;;;9.85;3.95;;;;;;;26.42;45.42;101520.53;5036348;28;20387;-67
2022/05/19 04:52:12;;;;;;;5.07;3.50;;;;;;;26.49;44.90;101520.53;5036505;28;20064;-67
2022/05/19 04:54:37;;;;;;;7.80;3.25;;;;;;;26.58;45.16;101519.19;5036403;28;20057;-67
2022/05/19 04:57:03;;;;;;;9.63;3.75;;;;;;;26.67;45.28;101523.41;5036234;28;20049;-67
2022/05/19 04:59:28;;;;;;;8.98;4.18;;;;;;;26.77;44.47;101526.56;5036443;28;20071;-67
2022/05/19 05:01:53;;;;;;;5.43;3.60;;;;;;;26.91;44.74;101522.69;5036335;28;20060;-66
2022/05/19 05:04:19;;;;;;;9.35;3.65;;;;;;;27.08;44.08;101523.84;5036042;28;20033;-67
2022/05/19 05:06:44;;;;;;;8.57;3.70;;;;;;;27.22;44.15;101516.38;5035898;28;20017;-66
2022/05/19 05:09:10;;;;;;;9.13;3.95;;;;;;;27.32;44.50;101513.13;5036004;28;20104;-66
2022/05/19 05:11:37;;;;;;;6.95;4.03;;;;;;;27.41;44.51;101522.84;5035720;28;20103;-67
2022/05/19 05:14:03;;;;;;;7.38;3.83;;;;;;;27.51;44.50;101513.03;5036245;28;20033;-67
2022/05/19 05:16:28;;;;;;;7.45;3.90;;;;;;;27.65;43.53;101519.25;5035548;28;20025;-67
2022/05/19 05:18:53;;;;;;;6.32;3.88;;;;;;;27.80;43.59;101521.69;5035317;28;20494;-67
2022/05/19 05:21:19;;;;;;;8.30;3.50;;;;;;;27.95;44.24;101520.25;5035865;28;20383;-67
2022/05/19 05:23:44;;;;;;;9.73;4.07;;;;;;;28.06;43.34;101519.53;5035427;28;20131;-67
2022/05/19 05:26:10;;;;;;;5.65;3.30;;;;;;;28.18;43.24;101511.38;5035505;28;20445;-67
2022/05/19 05:28:36;;;;;;;6.65;3.53;;;;;;;28.34;43.05;101507.19;5035554;28;20040;-67
2022/05/19 05:31:02;;;;;;;6.32;3.17;;;;;;;28.51;43.46;101513.75;5035490;28;20033;-67
2022/05/19 05:33:28;;;;;;;10.68;4.35;;;;;;;28.70;43.46;101508.03;5035307;28;20029;-68
2022/05/19 05:35:53;;;;;;;7.55;3.40;;;;;;;28.87;42.77;101508.22;5035636;28;20029;-67
2022/05/19 05:38:18;;;;;;;5.15;3.03;;;;;;;29.09;42.91;101511.34;5035515;28;20029;-68
2022/05/19 05:40:45;;;;;;;7.95;3.53;;;;;;;29.31;41.63;101507.81;5035547;28;20036;-67
2022/05/19 05:43:13;;;;;;;6.43;3.47;;;;;;;29.51;42.56;101506.69;5035257;28;20068;-68
2022/05/19 05:45:39;;;;;;;9.15;3.95;;;;;;;29.67;41.55;101506.00;5034750;28;20044;-68
2022/05/19 05:48:05;;;;;;;6.57;3.72;;;;;;;29.90;41.26;101511.59;5035122;28;20445;-67
2022/05/19 05:50:30;;;;;;;7.18;3.78;;;;;;;30.14;40.80;101518.78;5035052;28;20029;-67
2022/05/19 05:52:56;;;;;;;4.38;2.88;;;;;;;30.38;40.97;101523.22;5034622;28;20060;-68
2022/05/19 05:55:21;;;;;;;8.38;3.17;;;;;;;30.53;40.70;101512.50;5034775;28;20029;-67
2022/05/19 05:57:46;;;;;;;4.97;3.45;;;;;;;30.62;40.12;101506.59;5034462;28;20049;-68
2022/05/19 06:00:12;;;;;;;6.95;3.03;;;;;;;30.61;40.25;101510.44;5033568;28;20467;-68
2022/05/19 06:02:39;;;;;;;7.18;2.90;;;;;;;30.54;40.46;101510.59;5033784;28;20025;-68
2022/05/19 06:05:04;;;;;;;10.75;2.80;;;;;;;30.54;39.85;101505.06;5034450;28;20029;-68
2022/05/19 06:07:30;;;;;;;4.25;3.15;;;;;;;30.67;39.92;101498.38;5033080;28;20025;-68
2022/05/19 06:09:59;;;;;;;7.70;3.78;;;;;;;30.70;39.65;101503.44;5034341;28;20037;-68
2022/05/19 06:12:25;;;;;;;5.07;3.28;;;;;;;30.78;39.56;101505.81;5034235;28;20470;-69
2022/05/19 06:14:53;;;;;;;10.25;3.30;;;;;;;30.92;39.48;101509.97;5034136;28;20036;-68
2022/05/19 06:17:18;;;;;;;8.20;3.45;;;;;;;30.95;39.51;101499.28;5034406;28;20029;-68
2022/05/19 06:19:44;;;;;;;8.57;3.25;;;;;;;31.07;39.33;101496.47;5034074;28;20029;-68
2022/05/19 06:22:09;;;;;;;12.45;3.75;;;;;;;31.17;39.14;101498.56;5034322;28;20026;-68
2022/05/19 06:24:35;;;;;;;4.13;3.13;;;;;;;31.27;38.91;101496.81;5034003;28;20033;-68
2022/05/19 06:27:00;;;;;;;7.28;4.07;;;;;;;31.45;38.75;101492.97;5033934;28;20024;-68
2022/05/19 06:29:25;;;;;;;6.00;3.42;;;;;;;31.56;38.85;101487.41;5032953;28;20040;-68
2022/05/19 06:31:51;;;;;;;7.05;2.85;;;;;;;31.47;38.77;101479.75;5033871;28;20025;-68
2022/05/19 06:34:17;;;;;;;7.70;3.75;;;;;;;31.41;39.00;101473.25;5033841;28;20025;-67
2022/05/19 06:36:42;;;;;;;6.32;3.92;;;;;;;31.51;38.67;101473.47;5033991;28;20360;-67
2022/05/19 06:39:08;;;;;;;9.45;3.55;;;;;;;31.58;38.12;101471.34;5034038;28;20037;-68
2022/05/19 06:42:14;;;;;;;8.02;5.40;;;;;;;31.70;38.04;101469.34;5033780;28;20053;-68
2022/05/19 06:44:25;;;;;;;6.13;3.88;;;;;;;31.87;37.73;101474.03;5035284;28;20033;-67
2022/05/19 06:46:50;;;;;;;6.78;4.38;;;;;;;32.01;37.97;101475.38;5033698;28;20021;-68
2022/05/19 06:49:17;;;;;;;9.93;5.07;;;;;;;32.21;37.50;101467.34;5033603;28;20113;-68
2022/05/19 06:51:42;;;;;;;9.77;3.58;;;;;;;32.34;37.03;101469.75;5033829;28;20029;-68
2022/05/19 06:54:08;;;;;;;7.07;4.13;;;;;;;32.25;37.24;101471.28;5031632;28;20402;-68
2022/05/19 06:56:35;;;;;;;8.07;4.25;;;;;;;32.45;37.03;101466.00;5033358;28;20047;-68
2022/05/19 06:59:01;;;;;;;7.35;3.90;;;;;;;32.58;36.80;101467.59;5033732;28;20544;-68
2022/05/19 07:01:26;;;;;;;7.30;4.07;;;;;;;32.65;36.00;101468.22;5033549;28;20025;-67
2022/05/19 07:03:51;;;;;;;7.70;4.13;;;;;;;32.77;37.09;101460.59;5033475;28;20025;-68
2022/05/19 07:06:17;;;;;;;9.80;3.95;;;;;;;32.79;36.15;101452.84;5033547;28;20060;-68
2022/05/19 07:08:42;;;;;;;12.85;3.60;;;;;;;32.86;36.18;101456.22;5033394;28;20032;-68
2022/05/19 07:11:24;;;;;;;8.52;3.80;;;;;;;33.02;36.46;101451.69;5033697;28;20501;-69
2022/05/19 07:13:51;;;;;;;6.70;4.10;;;;;;;33.22;36.16;101457.47;5033510;28;20076;-69
2022/05/19 07:16:17;;;;;;;8.75;4.57;;;;;;;33.39;35.94;101466.53;5033220;28;20026;-69
2022/05/19 07:18:42;;;;;;;11.75;3.80;;;;;;;33.54;35.73;101463.84;5033304;28;20051;-69
2022/05/19 07:21:08;;;;;;;4.82;3.38;;;;;;;33.68;35.44;101467.06;5033340;28;20029;-68
2022/05/19 07:23:34;;;;;;;8.63;3.88;;;;;;;33.82;35.29;101459.94;5033291;28;20360;-69
2022/05/19 07:25:59;;;;;;;6.90;3.22;;;;;;;33.99;34.59;101463.38;5033312;28;20083;-68
2022/05/19 07:28:25;;;;;;;4.78;3.08;;;;;;;34.18;34.03;101459.06;5033280;28;20025;-68
2022/05/19 07:30:50;;;;;;;5.88;3.05;;;;;;;34.41;35.15;101460.56;5033405;28;20017;-68
2022/05/19 07:33:16;;;;;;;8.55;3.17;;;;;;;34.63;34.55;101450.09;5033174;28;20049;-68
2022/05/19 07:35:45;;;;;;;3.90;3.10;;;;;;;34.74;34.23;101446.25;5033229;28;20510;-68
2022/05/19 07:38:10;;;;;;;3.88;2.90;;;;;;;34.84;34.04;101442.66;5031461;28;20075;-68
2022/05/19 07:40:36;;;;;;;6.63;3.70;;;;;;;34.95;34.03;101434.00;5033487;28;20422;-68
2022/05/19 07:45:45;;;;;;;5.10;2.78;;;;;;;35.03;33.53;101408.44;5033072;28;20139;-68
2022/05/19 07:48:10;;;;;;;5.88;2.67;;;;;;;35.00;33.41;101408.97;5033299;28;20053;-68
2022/05/19 07:50:36;;;;;;;12.82;3.08;;;;;;;35.04;32.88;101409.22;5033123;28;20387;-68
2022/05/19 07:53:01;;;;;;;4.60;2.58;;;;;;;35.21;33.41;101403.41;5024312;28;20028;-68
2022/05/19 07:55:26;;;;;;;6.40;2.63;;;;;;;35.30;32.42;101402.59;5013288;28;20434;-67
2022/05/19 07:57:56;;;;;;;8.20;3.17;;;;;;;35.38;32.18;101382.53;5014236;28;20487;-68
2022/05/19 08:00:22;;;;;;;5.30;2.72;;;;;;;35.50;32.26;101385.00;5065195;28;20074;-68
2022/05/19 08:02:48;;;;;;;6.20;2.95;;;;;;;35.59;31.78;101388.94;5033119;28;20029;-68
2022/05/19 08:05:13;;;;;;;5.93;2.55;;;;;;;35.66;32.33;101389.47;5034994;28;20030;-68
2022/05/19 08:07:38;;;;;;;5.22;2.50;;;;;;;35.61;31.89;101386.69;5037158;28;20104;-68
2022/05/19 08:15:35;;;;;;;9.00;2.83;;;;;;;35.76;31.82;101389.47;5036501;28;20064;-69
2022/05/19 08:18:03;;;;;;;5.28;2.63;;;;;;;35.81;31.59;101395.03;5036557;28;20495;-68
2022/05/19 08:20:28;;;;;;;4.05;2.20;;;;;;;35.89;31.22;101391.66;5036543;28;20049;-69
2022/05/19 08:22:54;;;;;;;7.30;2.95;;;;;;;35.95;30.79;101390.53;5036617;28;20531;-68
2022/05/19 08:25:24;;;;;;;8.45;2.70;;;;;;;36.04;30.82;101380.44;5036602;28;20053;-68
2022/05/19 08:27:50;;;;;;;3.05;2.47;;;;;;;36.20;30.60;101390.47;5036227;28;20032;-69
2022/05/19 08:30:15;;;;;;;5.30;2.58;;;;;;;36.29;31.09;101387.06;5035045;28;20029;-67
2022/05/19 08:32:42;;;;;;;3.67;2.30;;;;;;;36.36;30.96;101382.00;5036239;28;20109;-68
2022/05/19 08:35:08;;;;;;;6.10;3.25;;;;;;;36.44;30.52;101384.19;5036129;28;20494;-69
2022/05/19 08:37:33;;;;;;;3.85;2.13;;;;;;;36.54;30.56;101378.59;5034435;28;20025;-68
2022/05/19 08:39:59;;;;;;;7.80;2.38;;;;;;;36.62;30.30;101375.19;5016759;28;20029;-68
2022/05/19 08:42:26;;;;;;;5.13;1.85;;;;;;;36.74;30.38;101364.50;5014978;28;20040;-69
2022/05/19 08:44:54;;;;;;;4.50;2.90;;;;;;;36.93;30.45;101371.06;5015007;28;20029;-68
2022/05/19 08:47:24;;;;;;;5.22;2.40;;;;;;;37.11;29.86;101361.13;5031613;28;20080;-69
2022/05/19 08:49:53;;;;;;;5.85;2.70;;;;;;;37.21;29.91;101361.91;5016215;28;20114;-68
2022/05/19 08:52:21;;;;;;;3.88;2.10;;;;;;;37.44;29.61;101351.09;5016172;28;20033;-68
2022/05/19 08:54:49;;;;;;;3.55;1.85;;;;;;;37.69;29.81;101356.41;5015879;28;20087;-68
2022/05/19 08:57:25;;;;;;;5.30;2.35;;;;;;;37.95;29.32;101342.94;5015938;28;20068;-68
2022/05/19 09:00:15;;;;;;;5.40;3.00;;;;;;;38.20;28.86;101349.06;5014927;28;20041;-68
2022/05/19 09:03:06;;;;;;;4.25;2.22;;;;;;;38.40;29.04;101340.41;5015982;28;20387;-69
2022/05/19 09:05:58;;;;;;;3.15;1.88;;;;;;;38.63;29.06;101343.44;5014988;28;20018;-69
2022/05/19 09:08:45;;;;;;;8.07;2.65;;;;;;;38.80;28.04;101338.16;5015607;28;20025;-68
2022/05/19 09:11:16;;;;;;;5.10;2.33;;;;;;;38.97;29.15;101335.63;5016715;28;20021;-68
2022/05/19 09:13:53;;;;;;;3.20;1.87;;;;;;;39.13;28.51;101324.97;5015174;28;20053;-68
2022/05/19 09:16:22;;;;;;;5.85;2.08;;;;;;;39.28;28.61;101325.53;5015702;28;20034;-68
2022/05/19 09:19:20;;;;;;;3.95;1.92;;;;;;;39.50;28.34;101308.03;5031215;28;20117;-68
2022/05/19 09:21:48;;;;;;;4.47;1.98;;;;;;;39.62;26.94;101313.13;5011983;28;20049;-69
2022/05/19 09:24:13;;;;;;;1.95;1.63;;;;;;;39.68;27.00;101328.72;5031087;28;20392;-68
2022/05/19 09:26:56;;;;;;;2.97;2.00;;;;;;;39.84;27.08;101318.88;5016044;28;20018;-69
2022/05/19 09:29:35;;;;;;;2.92;1.85;;;;;;;39.92;27.33;101310.56;5015483;28;20032;-68
2022/05/19 09:32:10;;;;;;;3.20;1.92;;;;;;;40.01;26.79;101313.44;5015774;28;20058;-68
2022/05/19 09:34:36;;;;;;;2.55;1.75;;;;;;;40.05;27.29;101309.69;5015365;28;20029;-68
2022/05/19 09:37:14;;;;;;;3.65;1.52;;;;;;;40.13;26.42;101311.78;5015441;28;20403;-69
2022/05/19 09:39:54;;;;;;;3.05;1.77;;;;;;;40.22;26.56;101309.06;5015543;28;20034;-68
2022/05/19 09:42:33;;;;;;;4.80;1.75;;;;;;;40.37;26.54;101308.69;5030536;28;20034;-68
2022/05/19 09:44:59;;;;;;;6.57;2.03;;;;;;;40.55;25.94;101306.91;5015260;28;20017;-68
2022/05/19 09:47:31;;;;;;;3.35;1.67;;;;;;;40.75;26.21;101303.59;5015281;28;20022;-69
2022/05/19 09:50:24;;;;;;;3.85;2.00;;;;;;;40.94;25.82;101300.59;5015330;28;20562;-69
2022/05/19 09:52:50;;;;;;;2.88;1.98;;;;;;;41.27;25.76;101304.78;5014833;28;20030;-69
2022/05/19 09:55:21;;;;;;;3.92;2.13;;;;;;;41.45;25.67;101298.13;5015006;28;20056;-69
2022/05/19 09:57:54;;;;;;;4.03;3.60;;;;;;;41.86;25.18;101294.13;5014827;28;20057;-69
2022/05/19 10:00:39;;;;;;;5.07;3.47;;;;;;;41.73;25.31;101299.56;5015405;28;20255;-69
2022/05/19 10:03:11;;;;;;;8.48;1.58;;;;;;;41.57;25.37;101303.13;5025473;28;20498;-69
2022/05/19 10:05:41;;;;;;;1.98;1.65;;;;;;;41.19;25.48;101294.31;5035017;28;20014;-69
2022/05/19 10:08:32;;;;;;;5.45;2.15;;;;;;;41.38;24.89;101292.09;5034754;28;20048;-69
2022/05/19 10:11:04;;;;;;;3.00;1.73;;;;;;;41.54;24.93;101295.34;5030442;28;20033;-69
2022/05/19 10:13:40;;;;;;;2.80;1.85;;;;;;;41.76;24.66;101287.66;5034758;28;20029;-69
2022/05/19 10:16:39;;;;;;;1.77;1.50;;;;;;;42.01;24.29;101283.25;5050301;28;20028;-68
2022/05/19 10:19:17;;;;;;;2.05;1.50;;;;;;;41.92;24.48;101270.28;5033206;28;20057;-69
2022/05/19 10:22:07;;;;;;;2.88;1.77;;;;;;;41.88;24.23;101274.94;5034322;28;20081;-68
2022/05/19 10:24:45;;;;;;;1.95;1.77;;;;;;;42.15;24.09;101266.22;5034108;28;20033;-69
2022/05/19 10:33:20;;;;;;;1.58;1.48;;;;;;;42.64;24.11;101254.44;5047314;28;20129;-69
2022/05/19 10:35:58;;;;;;;2.55;1.95;;;;;;;42.47;23.77;101247.97;5034349;28;20032;-69
2022/05/19 10:38:45;;;;;;;1.90;1.35;;;;;;;42.24;23.86;101247.34;5033380;28;20064;-69
2022/05/19 10:41:16;;;;;;;2.05;1.40;;;;;;;41.94;23.78;101242.63;5049651;28;20032;-69
2022/05/19 10:44:12;;;;;;;3.35;1.50;;;;;;;41.69;23.96;101239.41;5033034;28;20049;-69
2022/05/19 10:47:17;;;;;;;3.17;1.75;;;;;;;41.65;24.07;101249.69;5034265;28;20033;-69
2022/05/19 10:50:01;;;;;;;4.35;1.48;;;;;;;42.05;23.98;101241.13;5035256;28;20045;-69
2022/05/19 10:52:54;;;;;;;4.00;1.48;;;;;;;41.60;24.06;101232.91;5034159;28;20380;-69
2022/05/19 10:55:31;;;;;;;3.72;1.60;;;;;;;41.17;24.11;101235.56;5033978;28;20121;-69
2022/05/19 10:58:36;;;;;;;4.10;1.40;;;;;;;40.91;24.68;101231.78;5032685;28;20049;-69
2022/05/19 11:01:15;;;;;;;5.75;2.28;;;;;;;40.54;24.92;101249.88;5033573;28;20049;-68
2022/05/19 11:03:56;;;;;;;4.90;1.98;;;;;;;40.19;24.40;101253.53;5033653;28;20475;-69
2022/05/19 11:06:21;;;;;;;2.05;1.45;;;;;;;39.94;25.53;101263.34;5033822;28;20024;-68
2022/05/19 11:08:58;;;;;;;2.92;1.55;;;;;;;39.79;25.11;101245.97;5033701;28;20021;-69
2022/05/19 11:11:36;;;;;;;1.38;1.20;;;;;;;39.93;24.60;101255.22;5033939;28;20037;-69
2022/05/19 11:14:43;;;;;;;3.42;1.42;;;;;;;39.89;25.25;101248.59;5032227;28;20060;-69
2022/05/19 11:17:20;;;;;;;1.23;1.13;;;;;;;39.72;24.74;101245.59;5011549;28;20092;-69
2022/05/19 11:20:01;;;;;;;5.25;1.80;;;;;;;39.93;24.68;101235.56;5011780;28;20038;-69
2022/05/19 11:22:30;;;;;;;1.83;1.33;;;;;;;40.68;24.18;101233.75;5011604;28;20058;-69
2022/05/19 11:28:05;;;;;;;2.20;1.65;;;;;;;41.95;23.65;101221.75;5011970;28;20044;-69
2022/05/19 11:30:51;;;;;;;6.32;1.98;;;;;;;41.86;23.66;101202.03;4995226;28;20120;-69
2022/05/19 11:33:26;;;;;;;1.63;1.50;;;;;;;42.30;23.45;101192.44;5011536;28;20617;-68
2022/05/19 11:35:57;;;;;;;1.98;1.33;;;;;;;42.82;23.29;101191.22;5011460;28;20097;-68
2022/05/19 11:38:42;;;;;;;5.28;2.42;;;;;;;43.44;22.70;101191.47;4995152;28;20084;-69
2022/05/19 11:41:12;;;;;;;2.63;1.73;;;;;;;44.03;22.18;101197.06;5015173;28;20046;-69
2022/05/19 11:43:45;;;;;;;7.15;1.45;;;;;;;44.31;22.06;101186.88;5015576;28;20131;-69
2022/05/19 11:46:17;;;;;;;3.05;1.45;;;;;;;44.66;21.82;101204.34;4999087;28;20057;-69
2022/05/19 11:55:13;;;;;;;;;;;;;;;44.24;22.88;101199.91;5015812;28;20029;-69
2022/05/19 11:57:52;;;;;;;1.42;1.20;;;;;;;43.43;22.98;101195.50;5015120;28;19917;-69
2022/05/19 12:00:26;;;;;;;1.70;1.40;;;;;;;42.71;23.12;101215.31;5015074;28;20042;-69
2022/05/19 12:02:54;;;;;;;1.60;1.50;;;;;;;42.09;23.12;101290.03;4998861;28;20026;-69
2022/05/19 12:05:31;;;;;;;41.38;4.35;;;;;;;41.35;23.80;101337.78;5015160;28;20476;-69